createdAt,value
2022-12-25T00:03:45.958Z,58.10
2022-12-25T00:08:49.497Z,57.84
2022-12-25T00:13:52.814Z,57.60
2022-12-25T00:18:59.236Z,58.09
2022-12-25T00:24:03.655Z,57.73
2022-12-25T00:29:07.034Z,58.04
2022-12-25T00:34:12.171Z,57.93
2022-12-25T00:39:15.181Z,57.97
2022-12-25T00:44:19.038Z,58.00
2022-12-25T00:49:25.063Z,58.19
2022-12-25T00:54:28.826Z,58.16
2022-12-25T00:59:33.907Z,57.28
2022-12-25T01:04:38.735Z,57.76
2022-12-25T01:09:59.245Z,57.34
2022-12-25T01:15:02.677Z,57.22
2022-12-25T01:20:09.590Z,57.07
2022-12-25T01:25:14.307Z,56.98
2022-12-25T01:30:17.734Z,57.44
2022-12-25T01:35:22.593Z,56.83
2022-12-25T01:40:26.310Z,56.95
2022-12-25T01:45:39.463Z,56.21
2022-12-25T01:50:49.031Z,56.58
2022-12-25T01:55:58.057Z,56.49
2022-12-25T02:01:01.590Z,56.61
2022-12-25T02:06:08.144Z,56.41
2022-12-25T02:11:32.222Z,56.89
2022-12-25T02:16:57.442Z,56.77
2022-12-25T02:22:17.396Z,56.02
2022-12-25T02:27:33.232Z,55.19
2022-12-25T02:32:46.331Z,55.54
2022-12-25T02:37:54.892Z,55.11
2022-12-25T02:43:19.939Z,55.22
2022-12-25T02:48:44.900Z,55.28
2022-12-25T02:54:07.560Z,55.35
2022-12-25T02:59:29.214Z,55.16
2022-12-25T03:04:52.425Z,54.95
2022-12-25T03:10:17.969Z,55.35
2022-12-25T03:15:39.567Z,55.54
2022-12-25T03:21:01.953Z,55.37
2022-12-25T03:26:23.549Z,55.01
2022-12-25T03:31:36.901Z,55.06
2022-12-25T03:36:53.138Z,55.37
2022-12-25T03:42:19.320Z,54.87
2022-12-25T03:47:45.942Z,54.67
2022-12-25T03:53:10.231Z,54.73
2022-12-25T03:58:36.820Z,54.60
2022-12-25T04:03:57.495Z,54.76
2022-12-25T04:09:19.815Z,54.89
2022-12-25T04:14:40.284Z,55.05
2022-12-25T04:20:00.948Z,55.34
2022-12-25T04:25:35.029Z,55.08
2022-12-25T04:30:55.757Z,55.06
2022-12-25T04:36:11.048Z,55.42
2022-12-25T04:41:16.145Z,55.54
2022-12-25T04:46:19.553Z,54.60
2022-12-25T04:51:24.721Z,55.17
2022-12-25T04:56:29.487Z,55.33
2022-12-25T05:01:32.761Z,54.61
2022-12-25T05:06:36.315Z,55.04
2022-12-25T05:11:41.245Z,54.33
2022-12-25T05:16:44.704Z,54.66
2022-12-25T05:21:48.126Z,54.77
2022-12-25T05:26:52.882Z,54.71
2022-12-25T05:31:56.204Z,54.53
2022-12-25T05:36:59.907Z,54.70
2022-12-25T05:42:04.808Z,54.43
2022-12-25T05:47:08.084Z,54.38
2022-12-25T05:52:11.661Z,54.40
2022-12-25T05:57:16.591Z,54.44
2022-12-25T06:02:20.048Z,54.77
2022-12-25T06:07:23.667Z,54.65
2022-12-25T06:12:28.491Z,54.44
2022-12-25T06:17:31.652Z,54.11
2022-12-25T06:22:35.928Z,54.52
2022-12-25T06:27:40.925Z,54.44
2022-12-25T06:32:44.372Z,54.64
2022-12-25T06:37:47.911Z,54.06
2022-12-25T06:42:53.375Z,54.48
2022-12-25T06:47:56.897Z,54.57
2022-12-25T06:53:00.237Z,54.32
2022-12-25T06:58:05.369Z,54.45
2022-12-25T07:03:09.047Z,54.43
2022-12-25T07:08:12.538Z,54.07
2022-12-25T07:13:17.308Z,53.93
2022-12-25T07:18:20.872Z,54.00
2022-12-25T07:23:24.752Z,54.29
2022-12-25T07:28:30.244Z,54.10
2022-12-25T07:33:34.021Z,53.82
2022-12-25T07:38:37.600Z,54.00
2022-12-25T07:43:43.239Z,53.55
2022-12-25T07:48:46.789Z,53.51
2022-12-25T07:53:50.219Z,53.60
2022-12-25T07:58:54.992Z,53.55
2022-12-25T08:03:58.943Z,53.72
2022-12-25T08:09:06.036Z,53.75
2022-12-25T08:14:10.853Z,53.90
2022-12-25T08:19:14.644Z,53.30
2022-12-25T08:24:18.000Z,53.14
2022-12-25T08:29:22.947Z,53.44
2022-12-25T08:34:26.269Z,53.58
2022-12-25T08:39:29.780Z,52.98
2022-12-25T08:44:34.637Z,52.76
2022-12-25T08:49:37.725Z,53.30
2022-12-25T08:54:41.316Z,52.65
2022-12-25T08:59:46.118Z,52.34
2022-12-25T09:04:49.419Z,51.94
2022-12-25T09:09:52.801Z,52.77
2022-12-25T09:14:57.741Z,52.54
2022-12-25T09:20:00.951Z,52.46
2022-12-25T09:25:04.419Z,52.30
2022-12-25T09:30:11.172Z,52.39
2022-12-25T09:35:17.621Z,52.88
2022-12-25T09:40:23.260Z,52.09
2022-12-25T09:45:33.017Z,52.26
2022-12-25T09:50:45.048Z,52.56
2022-12-25T09:55:54.860Z,52.25
2022-12-25T10:01:18.356Z,52.03
2022-12-25T10:06:25.054Z,52.25
2022-12-25T10:11:42.985Z,51.53
2022-12-25T10:16:57.564Z,51.88
2022-12-25T10:22:05.274Z,51.96
2022-12-25T10:27:17.156Z,51.22
2022-12-25T10:32:22.051Z,51.48
2022-12-25T10:37:26.348Z,51.09
2022-12-25T10:42:38.721Z,51.57
2022-12-25T10:47:43.563Z,50.99
2022-12-25T10:52:55.423Z,51.22
2022-12-25T10:58:00.304Z,50.98
2022-12-25T11:03:05.343Z,50.50
2022-12-25T11:08:21.910Z,50.43
2022-12-25T11:13:27.440Z,50.14
2022-12-25T11:18:36.130Z,50.33
2022-12-25T11:23:46.410Z,50.23
2022-12-25T11:28:52.711Z,50.05
2022-12-25T11:34:00.751Z,49.72
2022-12-25T11:39:15.635Z,48.91
2022-12-25T11:44:29.284Z,49.54
2022-12-25T11:49:47.116Z,49.64
2022-12-25T11:54:56.680Z,50.06
2022-12-25T12:00:06.910Z,49.61
2022-12-25T12:05:18.188Z,49.20
2022-12-25T12:10:29.795Z,49.59
2022-12-25T12:15:42.756Z,49.34
2022-12-25T12:20:59.374Z,49.48
2022-12-25T12:26:03.088Z,49.36
2022-12-25T12:31:09.459Z,49.79
2022-12-25T12:36:16.238Z,50.30
2022-12-25T12:41:19.665Z,49.97
2022-12-25T12:46:30.525Z,49.57
2022-12-25T12:51:37.616Z,49.94
2022-12-25T12:56:41.218Z,50.11
2022-12-25T13:01:53.602Z,49.89
2022-12-25T13:07:10.402Z,50.37
2022-12-25T13:12:15.310Z,50.59
2022-12-25T13:17:19.977Z,50.71
2022-12-25T13:22:26.483Z,50.79
2022-12-25T13:27:33.210Z,51.10
2022-12-25T13:32:36.727Z,51.03
2022-12-25T13:37:41.502Z,51.18
2022-12-25T13:42:47.843Z,50.93
2022-12-25T13:47:55.624Z,51.18
2022-12-25T13:53:13.492Z,51.45
2022-12-25T13:58:25.227Z,51.48
2022-12-25T14:03:33.610Z,51.28
2022-12-25T14:08:38.644Z,51.21
2022-12-25T14:13:44.970Z,51.34
2022-12-25T14:18:53.036Z,51.11
2022-12-25T14:23:58.177Z,51.24
2022-12-25T14:29:16.511Z,51.50
2022-12-25T14:34:24.305Z,51.19
2022-12-25T14:39:33.676Z,51.21
2022-12-25T14:44:39.089Z,51.38
2022-12-25T14:49:42.744Z,51.26
2022-12-25T14:54:50.022Z,51.18
2022-12-25T14:59:58.960Z,51.03
2022-12-25T15:05:02.440Z,51.17
2022-12-25T15:10:58.886Z,50.96
2022-12-25T15:15:38.544Z,51.41
2022-12-25T15:20:42.109Z,51.70
2022-12-25T15:25:47.651Z,51.18
2022-12-25T15:30:51.117Z,51.86
2022-12-25T15:35:54.494Z,51.23
2022-12-25T15:40:59.414Z,51.53
2022-12-25T15:46:02.878Z,51.29
2022-12-25T15:51:06.569Z,51.36
2022-12-25T15:56:12.846Z,51.78
2022-12-25T16:01:17.168Z,51.77
2022-12-25T16:06:20.927Z,51.71
2022-12-25T16:11:25.650Z,52.21
2022-12-25T16:16:29.037Z,51.98
2022-12-25T16:21:39.487Z,52.51
2022-12-25T16:26:45.074Z,52.25
2022-12-25T16:31:48.411Z,52.30
2022-12-25T16:36:51.928Z,52.24
2022-12-25T16:41:56.877Z,52.10
2022-12-25T16:47:00.517Z,52.18
2022-12-25T16:52:04.191Z,52.29
2022-12-25T16:57:09.009Z,52.29
2022-12-25T17:02:16.388Z,52.02
2022-12-25T17:07:19.993Z,52.94
2022-12-25T17:12:24.903Z,52.54
2022-12-25T17:17:28.442Z,52.27
2022-12-25T17:22:32.060Z,53.01
2022-12-25T17:27:37.363Z,52.62
2022-12-25T17:32:41.440Z,52.49
2022-12-25T17:37:44.976Z,52.56
2022-12-25T17:42:53.053Z,52.55
2022-12-25T17:47:57.802Z,52.50
2022-12-25T17:53:02.685Z,52.39
2022-12-25T17:58:07.609Z,52.28
2022-12-25T18:03:12.043Z,52.47
2022-12-25T18:08:16.226Z,52.60
2022-12-25T18:13:21.054Z,52.27
2022-12-25T18:18:24.107Z,51.71
2022-12-25T18:23:27.734Z,52.60
2022-12-25T18:28:32.885Z,53.13
2022-12-25T18:33:36.226Z,52.91
2022-12-25T18:38:39.786Z,52.64
2022-12-25T18:43:53.051Z,52.77
2022-12-25T18:48:59.045Z,52.63
2022-12-25T18:54:02.859Z,52.45
2022-12-25T18:59:07.643Z,52.64
2022-12-25T19:04:12.902Z,52.19
2022-12-25T19:09:16.468Z,52.95
2022-12-25T19:14:23.112Z,52.69
2022-12-25T19:19:26.801Z,52.67
2022-12-25T19:24:30.125Z,52.84
2022-12-25T19:29:35.230Z,53.00
2022-12-25T19:34:38.719Z,53.35
2022-12-25T19:39:47.017Z,52.93
2022-12-25T19:44:51.874Z,53.04
2022-12-25T19:49:59.590Z,52.92
2022-12-25T19:55:08.410Z,52.74
2022-12-25T20:00:14.000Z,53.05
2022-12-25T20:05:17.577Z,52.42
2022-12-25T20:10:21.061Z,52.57
2022-12-25T20:15:28.736Z,52.41
2022-12-25T20:20:32.225Z,52.47
2022-12-25T20:25:35.682Z,53.04
2022-12-25T20:30:41.751Z,53.03
2022-12-25T20:35:46.916Z,52.98
2022-12-25T20:41:25.086Z,52.97
2022-12-25T20:46:15.501Z,53.20
2022-12-25T20:51:20.770Z,53.67
2022-12-25T20:56:25.922Z,53.59
2022-12-25T21:01:32.521Z,53.41
2022-12-25T21:06:36.252Z,53.69
2022-12-25T21:11:39.793Z,53.98
2022-12-25T21:16:45.040Z,53.88
2022-12-25T21:21:51.263Z,53.86
2022-12-25T21:26:54.697Z,54.38
2022-12-25T21:32:16.660Z,53.99
2022-12-25T21:37:20.175Z,53.94
2022-12-25T21:42:24.814Z,54.10
2022-12-25T21:48:02.466Z,54.27
2022-12-25T21:52:52.932Z,54.04
2022-12-25T21:57:56.580Z,54.27
2022-12-25T22:03:01.572Z,54.35
2022-12-25T22:08:05.039Z,54.37
2022-12-25T22:13:26.000Z,54.46
2022-12-25T22:18:48.344Z,54.20
2022-12-25T22:23:51.820Z,54.83
2022-12-25T22:28:55.177Z,54.39
2022-12-25T22:33:59.916Z,54.67
2022-12-25T22:39:03.912Z,54.97
2022-12-25T22:44:17.648Z,54.39
2022-12-25T22:49:23.408Z,54.19
2022-12-25T22:54:30.097Z,54.16
2022-12-25T22:59:34.218Z,53.81
2022-12-25T23:04:39.101Z,54.25
2022-12-25T23:09:42.798Z,54.29
2022-12-25T23:14:47.099Z,54.25
2022-12-25T23:20:09.122Z,54.14
2022-12-25T23:25:33.493Z,54.27
2022-12-25T23:30:36.954Z,54.36
2022-12-25T23:35:41.829Z,54.84
2022-12-25T23:40:45.128Z,54.54
2022-12-25T23:45:48.549Z,54.52
2022-12-25T23:50:53.290Z,54.14
2022-12-25T23:55:57.830Z,53.64
